Esbon, KS (66941)

2:07 AM CDT on July 31, 2014 (GMT -0500)
Cawker City (KKSCAWKE2) Elev 1490 ft | 39.51 °N, 98.44 °W | Change Station

Current weather conditions updated 12 seconds ago

Clear
Clear
59.7 °F
Feels Like 59.7 °F
N
0.0
Wind Variable Wind from SSW
Gusts 0.0 mph

Today is forecast to be Much Warmer than yesterday.

Today
High -- | Low -- °F
--% Chance of Precip.
Yesterday
High -- | Low -- °F
Precip. -- in
6:31 AM 8:47 PM
Waxing Crescent, 16% visible
Pressure 30.11 in
Visibility 10.0 miles
Clouds Clear
Dew Point 59 °F
Humidity 96%
Rainfall 0.00 in
Snow Depth Not available.
UV 0 out of 12
Pollen 4.00 out of 12
Air Quality Not available.
Flu Activity Not available.
METAR KCNK 310655Z AUTO 00000KT 10SM CLR 16/13 A3013 RMK AO2 SLP194 T01610128

More Conditions Fewer Conditions

Pressure 30.11 in
Visibility 10.0 miles
Clouds Clear
Dew Point 59 °F
Humidity 96%
Rainfall 0.00 in
Snow Depth Not available.
UV 0 out of 12
Pollen 4.00 out of 12
Air Quality Not available.
Flu Activity Not available.
METAR KCNK 310655Z AUTO 00000KT 10SM CLR 16/13 A3013 RMK AO2 SLP194 T01610128

More Conditions Fewer Conditions

10-Day Weather Forecast

Almanac

Astronomy

Jul. 31, 2014 Rise Set
Actual Time 6:31 AM CDT 8:47 PM CDT
Civil Twilight 6:01 AM CDT 9:18 PM CDT
Nautical Twilight 5:24 AM CDT 9:55 PM CDT
Astronomical Twilight 4:42 AM CDT 10:36 PM CDT
Moon 10:59 AM CDT 11:02 PM CDT
Length of Visible Light 15h 16m
Length of Day
14h 16m
Tomorrow will be 1m 58s shorter.
Waxing Crescent, 16% of the Moon is Illuminated
Today
Waxing Crescent
Aug 3
First Quarter
Aug 10
Full
Aug 17
Last Quarter
Aug 25
New

Today's Extremes

State Highs State Lows

Community

WunderPhotos

Upload Photos

1,739,251 photos uploaded!

Nearby

Snow Depth

Station Depth Elevation
No new snow has been reported.

Earthquake Activity

City Distance Mag. Time & Date
No recent earthquake activity has been reported nearby.
Minimum magnitude displayed is 2.5.

Coastal Water Temperatures

Place Temperature
No Stations Reporting

Nearby Weather Stations

Station Location Temp. Dew Point Humidity Wind Precip. Elev Updated Type
Cawker City, Cawker City, KS 59.7 °F 59 °F 96% SSW  at  0.0 mph 0.00 in / hr 1490 ft 2:07 AM CDT Rapid Fire
North Superior, Superior, NE 57.3 °F 54 °F 88% NE  at  0.0 mph 0.00 in / hr 1617 ft 2:07 AM CDT Rapid Fire

Show More Stations Show Fewer Stations